Clare, Michigan
Current Conditions -  °F | °C
As of 9:35 PM on Sunday 23 Nov 2014 (Local Time) from KMOP Reporting Station
Moderate Rain Moderate Rain  
Wind Chill: 44°   Ceiling: 900
Heat Index: 48°   Visibility: 5mi
Dew Point: 47°   Wind: 10mph
Humidity: 97%   Direction: 110°ESE
Pressure: 29.38"   Gusts: NA
Location:  43.82°N, 84.77°W
Report Text: KMOP 240235Z AUTO 11009KT 5SM RA BKN009 OVC013 09/09 A2938 RMK AO2 P0006 T00900085
Loading
Personal Weather Stations






























Interactive Weather Map New forecast layout! Learn more

10-Day Weather Forecast

Advertisements
Track Severe Weather on mobile